Time;durP1;ratioP1;P1;durP2;ratioP2;P2;SDS_P1;SDS_P2;PMS_P1;PMS_P2;Temp;Humidity;BMP_temperature;BMP_pressure;BME280_temperature;BME280_humidity;BME280_pressure;Samples;Min_cycle;Max_cycle;Signal;HPM_P1;HPM_P2
2022/10/08 00:00:15;;;;;;;2.15;1.02;;;;;;;10.26;100.00;101277.34;6273660;28;20053;-77
2022/10/08 00:03:18;;;;;;;3.60;1.05;;;;;;;10.25;100.00;101280.91;6274082;28;20060;-77
2022/10/08 00:06:23;;;;;;;8.45;1.17;;;;;;;10.23;100.00;101280.94;6267847;28;20076;-77
2022/10/08 00:09:24;;;;;;;3.08;1.35;;;;;;;10.21;100.00;101279.28;6363457;22;20051;-78
2022/10/08 00:12:25;;;;;;;5.28;0.98;;;;;;;10.15;100.00;101277.78;6299030;28;20487;-79
2022/10/08 00:15:27;;;;;;;5.47;1.08;;;;;;;10.13;100.00;101270.00;6298899;28;20048;-78
2022/10/08 00:18:29;;;;;;;2.30;1.08;;;;;;;10.11;100.00;101271.81;6299046;28;20052;-78
2022/10/08 00:21:34;;;;;;;2.20;0.93;;;;;;;10.08;100.00;101269.34;6299156;28;20059;-78
2022/10/08 00:24:37;;;;;;;3.47;1.20;;;;;;;10.09;100.00;101278.06;6297930;28;20056;-79
2022/10/08 00:27:39;;;;;;;1.52;1.10;;;;;;;10.09;100.00;101278.06;6298359;28;20051;-78
2022/10/08 00:30:41;;;;;;;3.78;1.40;;;;;;;10.06;100.00;101271.16;6298591;28;20048;-78
2022/10/08 00:33:42;;;;;;;5.55;1.50;;;;;;;10.05;100.00;101272.09;6298522;28;20137;-78
2022/10/08 00:36:46;;;;;;;3.35;1.02;;;;;;;10.00;100.00;101271.44;6298262;28;20176;-79
2022/10/08 00:39:47;;;;;;;4.53;1.13;;;;;;;9.99;100.00;101268.84;6298623;28;20131;-78
2022/10/08 00:42:48;;;;;;;2.15;1.13;;;;;;;9.98;100.00;101273.25;6298343;28;20048;-77
2022/10/08 00:45:50;;;;;;;5.53;1.10;;;;;;;9.95;100.00;101281.28;6297861;28;20071;-78
2022/10/08 00:49:01;;;;;;;6.97;2.03;;;;;;;9.92;100.00;101265.66;6298162;28;20415;-77
2022/10/08 00:52:04;;;;;;;3.45;1.00;;;;;;;9.90;100.00;101264.84;6298340;28;20048;-81
2022/10/08 00:55:08;;;;;;;5.57;1.00;;;;;;;9.90;100.00;101259.59;6298346;28;20048;-79
2022/10/08 00:58:13;;;;;;;3.15;0.95;;;;;;;9.87;100.00;101259.75;6298678;28;20483;-78
2022/10/08 01:01:16;;;;;;;1.60;1.00;;;;;;;9.83;100.00;101256.38;6298001;28;20052;-77
2022/10/08 01:04:17;;;;;;;7.35;1.35;;;;;;;9.77;100.00;101255.81;6298000;28;20075;-78
2022/10/08 01:07:25;;;;;;;7.13;1.30;;;;;;;9.79;100.00;101253.97;6298026;28;20055;-79
2022/10/08 01:10:34;;;;;;;6.80;2.22;;;;;;;9.76;100.00;101244.41;6296246;28;20044;-78
2022/10/08 01:13:41;;;;;;;3.95;1.20;;;;;;;9.73;100.00;101243.72;6290618;28;20488;-79
2022/10/08 01:16:51;;;;;;;5.22;1.42;;;;;;;9.73;100.00;101247.19;6290290;28;20064;-78
2022/10/08 01:20:11;;;;;;;3.10;1.20;;;;;;;9.71;100.00;101235.88;6297748;28;20059;-79
2022/10/08 01:23:32;;;;;;;3.80;1.48;;;;;;;9.70;100.00;101236.81;6293242;28;20515;-78
2022/10/08 01:26:52;;;;;;;8.52;1.40;;;;;;;9.79;100.00;101238.19;6296138;28;20055;-79
2022/10/08 01:29:59;;;;;;;4.80;1.10;;;;;;;9.81;100.00;101234.63;6296997;28;20084;-80
2022/10/08 01:33:11;;;;;;;1.50;0.98;;;;;;;9.85;100.00;101230.06;6297639;28;20040;-78
2022/10/08 01:36:17;;;;;;;7.68;1.92;;;;;;;9.86;100.00;101221.28;6296495;28;20504;-78
2022/10/08 01:39:22;;;;;;;4.95;1.08;;;;;;;9.91;100.00;101235.91;6297495;28;20048;-78
2022/10/08 01:42:27;;;;;;;7.90;1.67;;;;;;;9.93;100.00;101220.09;6297570;28;20045;-78
2022/10/08 01:45:33;;;;;;;3.65;1.63;;;;;;;9.90;100.00;101228.97;6289356;28;20503;-79
2022/10/08 01:48:39;;;;;;;4.65;1.38;;;;;;;9.87;100.00;101221.22;6297822;28;20063;-78
2022/10/08 01:51:46;;;;;;;5.40;1.88;;;;;;;9.86;100.00;101216.03;6297068;28;20051;-79
2022/10/08 01:54:51;;;;;;;5.13;1.23;;;;;;;9.85;100.00;101217.78;6297513;28;20075;-79
2022/10/08 01:57:57;;;;;;;5.32;1.25;;;;;;;9.84;100.00;101208.22;6297355;28;20079;-78
2022/10/08 02:01:04;;;;;;;6.30;1.23;;;;;;;9.80;100.00;101211.03;6297279;28;20098;-78
2022/10/08 02:07:27;;;;;;;;;;;;;;;9.75;100.00;101213.84;6294930;28;20056;-78
2022/10/08 02:10:29;;;;;;;3.85;1.48;;;;;;;9.76;100.00;101222.56;6297260;28;19981;-78
2022/10/08 02:13:30;;;;;;;10.25;1.38;;;;;;;9.81;100.00;101213.63;6297195;28;20063;-78
2022/10/08 02:16:36;;;;;;;3.00;1.48;;;;;;;9.81;100.00;101216.25;6297059;28;20407;-78
2022/10/08 02:19:48;;;;;;;5.57;1.40;;;;;;;9.81;100.00;101208.38;6297264;28;20435;-79
2022/10/08 02:22:57;;;;;;;6.65;1.25;;;;;;;9.85;100.00;101214.31;6297928;28;20191;-80
2022/10/08 02:26:00;;;;;;;2.90;1.20;;;;;;;9.86;100.00;101208.16;6297654;28;20052;-78
2022/10/08 02:29:09;;;;;;;2.67;1.10;;;;;;;9.91;100.00;101214.91;6298166;28;20055;-78
2022/10/08 02:32:18;;;;;;;3.33;1.52;;;;;;;9.96;100.00;101219.97;6297881;28;20049;-80
2022/10/08 02:35:25;;;;;;;4.82;1.15;;;;;;;9.99;100.00;101225.09;6297619;28;20052;-78
2022/10/08 02:38:34;;;;;;;6.85;1.17;;;;;;;10.06;100.00;101218.66;6297546;28;20052;-79
2022/10/08 02:41:40;;;;;;;7.93;1.17;;;;;;;10.19;100.00;101218.97;6297294;28;20460;-78
2022/10/08 02:44:47;;;;;;;3.80;0.80;;;;;;;10.26;100.00;101223.03;6297266;28;20663;-78
2022/10/08 02:47:55;;;;;;;4.15;1.40;;;;;;;10.32;100.00;101222.78;6297912;28;20052;-79
2022/10/08 02:51:01;;;;;;;3.45;1.58;;;;;;;10.36;100.00;101218.25;6302033;28;20055;-78
2022/10/08 02:54:04;;;;;;;2.72;1.73;;;;;;;10.41;100.00;101217.13;6301264;28;20049;-79
2022/10/08 02:57:13;;;;;;;4.63;1.48;;;;;;;10.47;100.00;101213.34;6301675;28;20597;-79
2022/10/08 03:00:14;;;;;;;6.53;1.80;;;;;;;10.50;100.00;101215.84;6300515;28;20051;-78
2022/10/08 03:03:22;;;;;;;12.80;1.80;;;;;;;10.56;100.00;101214.72;6301255;28;20048;-78
2022/10/08 03:06:27;;;;;;;2.13;1.05;;;;;;;10.57;100.00;101213.78;6301233;28;20049;-77
2022/10/08 03:09:32;;;;;;;7.22;1.30;;;;;;;10.57;100.00;101217.25;6292591;28;20088;-78
2022/10/08 03:12:34;;;;;;;5.22;1.65;;;;;;;10.59;100.00;101212.81;6301021;28;20123;-78
2022/10/08 03:15:36;;;;;;;9.02;1.90;;;;;;;10.59;100.00;101207.53;6300445;28;20048;-78
2022/10/08 03:18:40;;;;;;;6.72;1.20;;;;;;;10.63;100.00;101203.84;6292584;28;20052;-77
2022/10/08 03:21:44;;;;;;;3.83;1.80;;;;;;;10.67;100.00;101209.81;6278240;28;20489;-78
2022/10/08 03:24:46;;;;;;;13.45;1.63;;;;;;;10.68;100.00;101213.31;6288872;28;20049;-78
2022/10/08 03:27:50;;;;;;;3.35;1.60;;;;;;;10.65;100.00;101216.91;6298335;28;20163;-78
2022/10/08 03:30:51;;;;;;;4.45;1.55;;;;;;;10.66;100.00;101216.84;6289104;28;20179;-77
2022/10/08 03:33:54;;;;;;;7.00;1.50;;;;;;;10.71;100.00;101216.63;6277572;28;20045;-77
2022/10/08 03:36:56;;;;;;;7.40;1.67;;;;;;;10.72;100.00;101220.97;6275865;28;20055;-77
2022/10/08 03:39:57;;;;;;;2.47;1.55;;;;;;;10.72;100.00;101228.88;6286825;28;20063;-77
2022/10/08 03:42:59;;;;;;;3.97;2.10;;;;;;;10.71;100.00;101223.66;6289692;28;20041;-76
2022/10/08 03:46:01;;;;;;;4.97;1.10;;;;;;;10.71;100.00;101223.66;6298648;28;20050;-77
2022/10/08 03:49:04;;;;;;;8.57;1.52;;;;;;;10.74;100.00;101221.75;6298789;28;20044;-77
2022/10/08 03:52:05;;;;;;;5.80;1.40;;;;;;;10.77;100.00;101223.41;6285949;28;20158;-77
2022/10/08 03:55:08;;;;;;;10.27;1.63;;;;;;;10.79;100.00;101224.16;6284967;28;20049;-77
2022/10/08 03:58:09;;;;;;;3.45;1.67;;;;;;;10.79;100.00;101224.16;6284668;28;20059;-77
2022/10/08 04:01:13;;;;;;;5.70;1.67;;;;;;;10.77;100.00;101228.66;6284453;28;20063;-77
2022/10/08 04:04:15;;;;;;;11.20;1.70;;;;;;;10.80;100.00;101220.59;6285094;28;20045;-76
2022/10/08 04:07:17;;;;;;;7.45;1.50;;;;;;;10.77;100.00;101224.25;6283473;28;20052;-76
2022/10/08 04:10:18;;;;;;;4.53;1.65;;;;;;;10.77;100.00;101221.63;6275488;28;20052;-77
2022/10/08 04:13:20;;;;;;;9.15;1.63;;;;;;;10.80;100.00;101226.72;6280567;28;20055;-76
2022/10/08 04:16:21;;;;;;;10.40;1.85;;;;;;;10.82;100.00;101217.00;6282387;28;20047;-79
2022/10/08 04:19:24;;;;;;;4.45;1.70;;;;;;;10.88;100.00;101226.38;6284614;28;20052;-76
2022/10/08 04:22:25;;;;;;;4.28;1.92;;;;;;;10.87;100.00;101230.78;6282947;28;20053;-79
2022/10/08 04:25:27;;;;;;;7.55;1.52;;;;;;;10.88;100.00;101227.22;6283456;28;20701;-76
2022/10/08 04:28:29;;;;;;;2.97;1.73;;;;;;;10.89;100.00;101228.06;6283706;28;20044;-77
2022/10/08 04:31:30;;;;;;;3.72;1.48;;;;;;;10.91;100.00;101231.50;6283590;28;20048;-78
2022/10/08 04:34:33;;;;;;;7.10;1.75;;;;;;;10.94;100.00;101233.94;6283527;28;20044;-79
2022/10/08 04:37:35;;;;;;;8.90;1.73;;;;;;;10.97;100.00;101240.84;6283164;28;20048;-78
2022/10/08 04:40:36;;;;;;;1.80;1.05;;;;;;;10.98;100.00;101235.53;6284597;28;20060;-79
2022/10/08 04:43:39;;;;;;;4.10;1.80;;;;;;;10.97;100.00;101238.22;6282039;28;20045;-78
2022/10/08 04:46:41;;;;;;;7.30;2.00;;;;;;;10.98;100.00;101248.66;6284698;28;20041;-79
2022/10/08 04:49:43;;;;;;;6.72;1.77;;;;;;;11.01;100.00;101247.69;6284800;28;20048;-79
2022/10/08 04:52:45;;;;;;;5.63;1.60;;;;;;;11.01;100.00;101245.06;6282459;28;20196;-78
2022/10/08 04:55:46;;;;;;;8.10;1.17;;;;;;;11.00;100.00;101249.47;6280788;28;20512;-77
2022/10/08 04:58:48;;;;;;;1.98;1.27;;;;;;;10.98;100.00;101238.16;6273173;28;20052;-79
2022/10/08 05:01:51;;;;;;;13.27;2.25;;;;;;;11.00;100.00;101248.63;6275493;28;20056;-77
2022/10/08 05:04:54;;;;;;;10.50;1.60;;;;;;;11.01;100.00;101255.56;6276118;28;20404;-77
2022/10/08 05:07:55;;;;;;;10.20;2.50;;;;;;;11.02;100.00;101255.50;6276605;28;20045;-78
2022/10/08 05:10:57;;;;;;;5.05;1.73;;;;;;;11.04;100.00;101252.81;6275656;28;20130;-77
2022/10/08 05:13:59;;;;;;;3.00;1.65;;;;;;;11.04;100.00;101248.41;6274393;28;20041;-77
2022/10/08 05:17:00;;;;;;;8.13;1.60;;;;;;;11.07;100.00;101255.28;6278066;28;20528;-77
2022/10/08 05:20:03;;;;;;;4.35;1.80;;;;;;;11.08;100.00;101264.88;6276613;28;20053;-78
2022/10/08 05:23:05;;;;;;;7.97;3.25;;;;;;;11.09;100.00;101267.44;6277380;28;20045;-77
2022/10/08 05:26:14;;;;;;;9.15;1.60;;;;;;;11.15;100.00;101261.03;6277852;28;20057;-77
2022/10/08 05:29:15;;;;;;;3.35;1.52;;;;;;;11.20;100.00;101260.81;6276629;28;20067;-78
2022/10/08 05:32:17;;;;;;;3.20;1.85;;;;;;;11.21;100.00;101260.72;6276601;28;20059;-77
2022/10/08 05:35:20;;;;;;;2.65;1.83;;;;;;;11.23;100.00;101260.69;6276735;28;20045;-78
2022/10/08 05:38:21;;;;;;;8.77;2.92;;;;;;;11.23;100.00;101252.78;6275028;28;20045;-78
2022/10/08 05:41:25;;;;;;;6.63;2.47;;;;;;;11.26;100.00;101257.88;6271914;28;20048;-77
2022/10/08 05:44:26;;;;;;;9.05;3.00;;;;;;;11.29;100.00;101252.47;6271686;28;20120;-77
2022/10/08 05:47:28;;;;;;;7.47;3.10;;;;;;;11.26;100.00;101249.97;6271968;28;20059;-77
2022/10/08 05:50:30;;;;;;;5.13;2.63;;;;;;;11.27;100.00;101249.94;6271484;28;20060;-76
2022/10/08 05:53:34;;;;;;;7.43;2.10;;;;;;;11.28;100.00;101256.03;6271652;28;20041;-76
2022/10/08 05:56:36;;;;;;;5.95;2.70;;;;;;;11.29;100.00;101265.63;6271686;28;20428;-76
2022/10/08 05:59:37;;;;;;;9.38;2.50;;;;;;;11.30;100.00;101280.50;6271974;28;20060;-76
2022/10/08 06:02:38;;;;;;;5.60;1.85;;;;;;;11.31;100.00;101276.91;6275027;28;20047;-79
2022/10/08 06:05:41;;;;;;;5.82;2.55;;;;;;;11.31;100.00;101290.97;6292020;28;20504;-77
2022/10/08 06:08:43;;;;;;;6.05;2.60;;;;;;;11.35;100.00;101291.63;6290227;28;20053;-77
2022/10/08 06:11:44;;;;;;;7.07;2.42;;;;;;;11.36;100.00;101296.84;6293446;28;20427;-80
2022/10/08 06:14:46;;;;;;;9.75;2.47;;;;;;;11.37;100.00;101293.28;6300475;28;20041;-79
2022/10/08 06:17:50;;;;;;;10.73;2.10;;;;;;;11.38;100.00;101295.00;6303334;28;20056;-80
2022/10/08 06:20:53;;;;;;;5.82;2.90;;;;;;;11.39;100.00;101299.31;6302604;28;20045;-79
2022/10/08 06:23:56;;;;;;;10.40;2.22;;;;;;;11.38;100.00;101305.50;6301807;28;20052;-79
2022/10/08 06:26:58;;;;;;;4.10;2.53;;;;;;;11.37;100.00;101318.75;6313656;28;20052;-79
2022/10/08 06:29:59;;;;;;;6.32;2.40;;;;;;;11.34;100.00;101314.47;6298591;28;20059;-81
2022/10/08 06:33:01;;;;;;;7.72;3.58;;;;;;;11.35;100.00;101323.22;6306273;28;20484;-78
2022/10/08 06:36:05;;;;;;;5.68;2.42;;;;;;;11.34;100.00;101322.38;6308213;28;20055;-80
2022/10/08 06:39:10;;;;;;;10.02;2.90;;;;;;;11.31;100.00;101332.19;6308145;28;20054;-80
2022/10/08 06:42:11;;;;;;;7.07;2.75;;;;;;;11.25;100.00;101338.59;6307197;28;20143;-81
2022/10/08 06:45:13;;;;;;;12.13;2.88;;;;;;;11.25;100.00;101343.84;6307199;28;20051;-80
2022/10/08 06:48:14;;;;;;;7.93;2.15;;;;;;;11.28;100.00;101346.34;6307554;28;20044;-80
2022/10/08 06:51:18;;;;;;;8.48;3.13;;;;;;;11.28;100.00;101350.75;6308843;28;20048;-80
2022/10/08 06:54:20;;;;;;;7.13;2.20;;;;;;;11.27;100.00;101351.69;6308256;28;20518;-80
2022/10/08 06:57:21;;;;;;;4.70;2.20;;;;;;;11.28;100.00;101354.25;6306755;28;20055;-79
2022/10/08 07:00:23;;;;;;;8.15;2.65;;;;;;;11.25;100.00;101357.00;6305264;28;20049;-80
2022/10/08 07:03:24;;;;;;;8.80;2.70;;;;;;;11.23;100.00;101364.13;6307092;28;20059;-79
2022/10/08 07:06:28;;;;;;;7.53;2.53;;;;;;;11.20;100.00;101372.16;6306550;28;20049;-80
2022/10/08 07:09:29;;;;;;;7.55;2.33;;;;;;;11.21;100.00;101376.50;6306500;28;20393;-79
2022/10/08 07:12:31;;;;;;;5.07;2.50;;;;;;;11.20;100.00;101380.06;6306731;28;20045;-79
2022/10/08 07:15:33;;;;;;;4.63;2.42;;;;;;;11.24;100.00;101383.41;6307039;28;20051;-79
2022/10/08 07:18:35;;;;;;;9.25;3.05;;;;;;;11.33;100.00;101393.50;6304313;28;20049;-80
2022/10/08 07:21:39;;;;;;;5.40;2.10;;;;;;;11.32;100.00;101402.31;6305087;28;20056;-78
2022/10/08 07:24:40;;;;;;;9.85;2.60;;;;;;;11.40;100.00;101413.38;6307573;28;20056;-80
2022/10/08 07:27:42;;;;;;;5.57;2.75;;;;;;;11.44;100.00;101417.53;6308218;28;20497;-80
2022/10/08 07:30:43;;;;;;;3.95;2.63;;;;;;;11.47;100.00;101420.03;6313931;28;20059;-80
2022/10/08 07:33:45;;;;;;;4.45;2.45;;;;;;;11.50;100.00;101425.16;6311011;28;20044;-80
2022/10/08 07:36:47;;;;;;;6.43;3.03;;;;;;;11.55;100.00;101428.44;6314745;28;20049;-79
2022/10/08 07:39:49;;;;;;;6.10;2.80;;;;;;;11.57;100.00;101436.25;6313656;28;20094;-79
2022/10/08 07:42:51;;;;;;;6.15;2.80;;;;;;;11.65;100.00;101439.38;6315604;28;20046;-79
2022/10/08 07:45:52;;;;;;;8.93;3.00;;;;;;;11.64;100.00;101442.94;6313120;28;20055;-79
2022/10/08 07:48:55;;;;;;;8.68;3.28;;;;;;;11.66;100.00;101434.03;6310886;28;20045;-80
2022/10/08 07:51:58;;;;;;;8.48;2.60;;;;;;;11.70;100.00;101440.03;6311099;28;20106;-79
2022/10/08 07:54:59;;;;;;;6.43;2.95;;;;;;;11.73;100.00;101447.78;6308495;28;20048;-78
2022/10/08 07:58:01;;;;;;;8.43;2.50;;;;;;;11.79;100.00;101455.38;6311200;28;20058;-78
2022/10/08 08:01:05;;;;;;;9.18;3.15;;;;;;;11.78;100.00;101448.41;6312395;28;20514;-79
2022/10/08 08:04:10;;;;;;;10.00;3.28;;;;;;;11.88;100.00;101456.78;6311927;28;20053;-79
2022/10/08 08:07:13;;;;;;;6.15;3.25;;;;;;;11.89;100.00;101461.94;6313508;28;20052;-78
2022/10/08 08:10:15;;;;;;;4.63;2.67;;;;;;;11.90;100.00;101460.19;6310333;28;20119;-80
2022/10/08 08:13:16;;;;;;;10.50;2.85;;;;;;;11.95;100.00;101465.25;6312500;28;20503;-79
2022/10/08 08:16:19;;;;;;;6.32;2.78;;;;;;;11.99;100.00;101461.50;6309443;28;20048;-80
2022/10/08 08:19:22;;;;;;;10.00;2.67;;;;;;;12.03;100.00;101470.97;6305995;28;20048;-79
2022/10/08 08:22:25;;;;;;;5.93;2.83;;;;;;;12.12;100.00;101476.66;6305671;28;20048;-79
2022/10/08 08:25:27;;;;;;;4.05;2.20;;;;;;;12.18;100.00;101479.03;6309586;28;20055;-79
2022/10/08 08:28:29;;;;;;;4.35;2.45;;;;;;;12.19;100.00;101486.00;6310749;28;20397;-79
2022/10/08 08:31:33;;;;;;;11.70;2.60;;;;;;;12.36;100.00;101479.06;6311395;28;20057;-79
2022/10/08 08:34:34;;;;;;;5.40;2.17;;;;;;;12.34;100.00;101486.16;6306240;28;20044;-79
2022/10/08 08:37:37;;;;;;;6.88;2.30;;;;;;;12.31;100.00;101487.19;6307216;28;20044;-79
2022/10/08 08:40:38;;;;;;;3.78;2.30;;;;;;;12.40;100.00;101496.44;6310690;28;20044;-80
2022/10/08 08:43:40;;;;;;;6.47;3.05;;;;;;;12.44;100.00;101501.47;6309969;28;20051;-80
2022/10/08 08:46:46;;;;;;;6.03;2.65;;;;;;;12.50;100.00;101499.47;6307805;28;20059;-81
2022/10/08 08:49:52;;;;;;;7.38;1.85;;;;;;;12.54;100.00;101503.66;6301098;28;20048;-81
2022/10/08 08:52:55;;;;;;;8.02;2.13;;;;;;;12.56;100.00;101512.34;6301612;28;20052;-81
2022/10/08 08:56:02;;;;;;;4.25;2.03;;;;;;;12.55;100.00;101514.13;6303136;28;20492;-80
2022/10/08 08:59:16;;;;;;;7.25;2.50;;;;;;;12.55;100.00;101515.91;6302364;28;20143;-80
2022/10/08 09:02:22;;;;;;;7.30;2.75;;;;;;;12.61;100.00;101516.44;6299984;28;20492;-81
2022/10/08 09:05:27;;;;;;;3.03;1.80;;;;;;;12.64;100.00;101520.72;6311914;28;20051;-79
2022/10/08 09:08:35;;;;;;;3.72;2.20;;;;;;;12.69;100.00;101526.63;6312857;28;20055;-80
2022/10/08 09:11:38;;;;;;;3.53;2.33;;;;;;;12.76;100.00;101521.88;6306834;28;20048;-79
2022/10/08 09:14:43;;;;;;;7.57;2.40;;;;;;;12.85;100.00;101521.41;6298839;28;20055;-81
2022/10/08 09:17:49;;;;;;;2.92;2.03;;;;;;;12.96;100.00;101521.75;6300704;28;20058;-81
2022/10/08 09:20:50;;;;;;;3.83;1.38;;;;;;;12.98;100.00;101522.50;6298211;28;20496;-79
2022/10/08 09:23:53;;;;;;;3.47;1.65;;;;;;;13.05;100.00;101528.34;6297800;28;20052;-79
2022/10/08 09:26:55;;;;;;;4.72;1.45;;;;;;;13.07;100.00;101531.75;6298924;28;20526;-79
2022/10/08 09:29:56;;;;;;;4.38;2.05;;;;;;;13.06;100.00;101527.41;6296847;28;20048;-79
2022/10/08 09:33:00;;;;;;;2.60;1.50;;;;;;;13.10;100.00;101529.81;6293677;28;20493;-80
2022/10/08 09:36:02;;;;;;;3.80;1.58;;;;;;;13.12;100.00;101538.50;6287631;28;20041;-79
2022/10/08 09:39:14;;;;;;;4.63;1.35;;;;;;;13.15;100.00;101537.50;6297676;28;20058;-80
2022/10/08 09:42:17;;;;;;;5.13;1.48;;;;;;;13.19;100.00;101539.91;6297458;28;20052;-79
2022/10/08 09:45:32;;;;;;;4.70;1.30;;;;;;;13.43;100.00;101535.16;6306353;28;20056;-79
2022/10/08 09:48:34;;;;;;;4.75;1.30;;;;;;;13.59;100.00;101526.44;6298406;28;20048;-80
2022/10/08 09:51:35;;;;;;;5.82;1.25;;;;;;;13.76;100.00;101534.28;6301638;28;20474;-80
2022/10/08 09:54:45;;;;;;;5.07;1.63;;;;;;;13.93;100.00;101538.66;6302675;28;20415;-80
2022/10/08 09:57:49;;;;;;;4.18;1.60;;;;;;;14.00;100.00;101537.41;6308642;28;20439;-79
2022/10/08 10:01:04;;;;;;;3.70;1.10;;;;;;;13.91;100.00;101551.09;6305082;28;20419;-77
2022/10/08 10:04:06;;;;;;;7.60;1.70;;;;;;;13.94;100.00;101551.81;6310848;28;20055;-78
2022/10/08 10:07:07;;;;;;;6.22;1.40;;;;;;;13.97;95.46;101548.13;6312196;28;20506;-79
2022/10/08 10:10:17;;;;;;;1.27;0.85;;;;;;;13.95;95.47;101542.94;6304579;28;20052;-79
2022/10/08 10:13:23;;;;;;;7.55;2.05;;;;;;;13.84;97.34;101550.56;6301890;28;20059;-79
2022/10/08 10:16:28;;;;;;;3.47;0.77;;;;;;;13.82;98.00;101533.97;6300890;28;20511;-78
2022/10/08 10:19:36;;;;;;;2.03;0.80;;;;;;;13.83;97.03;101548.03;6301776;28;20063;-80
2022/10/08 10:22:47;;;;;;;5.57;0.93;;;;;;;13.81;97.37;101547.28;6302610;28;20063;-81
2022/10/08 10:25:54;;;;;;;5.07;1.10;;;;;;;13.73;95.50;101560.03;6301715;28;20048;-81
2022/10/08 10:28:58;;;;;;;3.47;1.45;;;;;;;13.75;95.41;101560.78;6301761;28;20055;-80
2022/10/08 10:32:07;;;;;;;6.45;0.88;;;;;;;13.75;95.88;101571.34;6301388;28;20060;-80
2022/10/08 10:35:15;;;;;;;4.45;0.85;;;;;;;13.87;89.89;101589.19;6302345;28;20131;-80
2022/10/08 10:38:23;;;;;;;1.77;0.38;;;;;;;13.78;85.14;101584.41;6302868;28;20492;-81
2022/10/08 10:41:32;;;;;;;1.15;0.20;;;;;;;13.49;86.59;101592.09;6300863;28;20428;-79
2022/10/08 10:44:46;;;;;;;4.10;0.50;;;;;;;12.77;100.00;101622.06;6308702;28;20054;-78
2022/10/08 10:47:50;;;;;;;0.82;0.30;;;;;;;11.74;100.00;101628.53;6304652;28;20053;-73
2022/10/08 10:51:19;;;;;;;4.15;0.75;;;;;;;11.39;100.00;101625.66;6296710;28;20052;-77
2022/10/08 10:54:35;;;;;;;4.65;0.50;;;;;;;11.24;100.00;101641.25;6306708;28;20048;-77
2022/10/08 10:58:03;;;;;;;1.58;0.73;;;;;;;11.09;100.00;101630.44;6309737;28;20056;-76
2022/10/08 11:01:15;;;;;;;0.43;0.40;;;;;;;11.06;100.00;101616.56;6299856;28;20515;-78
2022/10/08 11:04:23;;;;;;;0.30;0.30;;;;;;;11.18;100.00;101606.38;6297832;28;20056;-79
2022/10/08 11:07:46;;;;;;;2.20;0.90;;;;;;;11.46;100.00;101607.00;6295741;28;20411;-78
2022/10/08 11:11:02;;;;;;;4.43;1.23;;;;;;;11.60;100.00;101601.97;6289395;28;20045;-78
2022/10/08 11:14:28;;;;;;;3.80;0.70;;;;;;;11.81;100.00;101589.59;6294483;28;20127;-79
2022/10/08 11:17:44;;;;;;;0.80;0.47;;;;;;;11.87;100.00;101606.03;6291197;28;20199;-77
2022/10/08 11:21:06;;;;;;;2.17;0.70;;;;;;;12.01;100.00;101601.94;6275348;28;20393;-76
2022/10/08 11:24:25;;;;;;;1.75;0.50;;;;;;;12.15;100.00;101599.50;6281328;28;20044;-75
2022/10/08 11:27:36;;;;;;;1.58;0.70;;;;;;;12.17;100.00;101608.19;6277743;28;20056;-78
2022/10/08 11:30:49;;;;;;;3.40;0.77;;;;;;;12.46;100.00;101606.00;6284011;28;20052;-78
2022/10/08 11:33:51;;;;;;;0.65;0.55;;;;;;;12.70;100.00;101600.38;6276144;28;20057;-78
2022/10/08 11:37:03;;;;;;;4.25;0.57;;;;;;;12.75;100.00;101599.31;6293377;28;20051;-79
2022/10/08 11:40:14;;;;;;;5.78;0.70;;;;;;;12.79;100.00;101603.50;6300913;28;20058;-80
2022/10/08 11:43:24;;;;;;;2.25;0.73;;;;;;;12.61;100.00;101605.25;6302149;28;20051;-77
2022/10/08 11:46:29;;;;;;;2.60;0.77;;;;;;;12.69;100.00;101600.47;6299153;28;20156;-79
2022/10/08 11:49:52;;;;;;;3.20;0.60;;;;;;;13.07;100.00;101597.72;6299703;28;20060;-78
2022/10/08 11:52:58;;;;;;;0.77;0.50;;;;;;;13.40;100.00;101592.56;6300721;28;20431;-79
2022/10/08 11:55:59;;;;;;;4.82;1.23;;;;;;;13.62;100.00;101587.84;6301200;28;20040;-78
2022/10/08 11:59:07;;;;;;;1.20;0.95;;;;;;;13.87;100.00;101590.06;6301371;28;20059;-78
2022/10/08 12:02:24;;;;;;;0.60;0.60;;;;;;;13.99;100.00;101582.38;6299453;28;20048;-78
2022/10/08 12:05:39;;;;;;;7.05;0.80;;;;;;;14.23;100.00;101577.56;6300029;28;20049;-78
2022/10/08 12:08:52;;;;;;;3.10;0.80;;;;;;;14.18;100.00;101576.03;6301661;28;20048;-75
2022/10/08 12:11:54;;;;;;;5.60;0.80;;;;;;;14.32;100.00;101582.34;6300213;22;20048;-77
2022/10/08 12:14:55;;;;;;;1.05;0.70;;;;;;;14.38;100.00;101576.72;6290360;28;20056;-77
2022/10/08 12:18:01;;;;;;;5.00;0.65;;;;;;;14.20;100.00;101576.78;6273719;28;20052;-77
2022/10/08 12:21:42;;;;;;;4.50;1.20;;;;;;;13.96;100.00;101589.56;6296731;28;20507;-77
2022/10/08 12:24:55;;;;;;;8.63;0.75;;;;;;;14.05;100.00;101585.56;6285230;28;20056;-78
2022/10/08 12:28:49;;;;;;;1.23;0.50;;;;;;;14.25;100.00;101581.81;6296039;28;20134;-78
2022/10/08 12:32:01;;;;;;;0.20;0.20;;;;;;;14.28;92.36;101586.09;6297279;28;20052;-76
2022/10/08 12:35:04;;;;;;;0.38;0.38;;;;;;;14.09;97.10;101602.97;6297970;28;20473;-77
2022/10/08 12:38:22;;;;;;;4.10;0.95;;;;;;;13.92;98.78;101613.59;6298635;28;20059;-78
2022/10/08 12:41:26;;;;;;;1.15;0.40;;;;;;;13.89;92.41;101617.22;6297671;28;20504;-78
2022/10/08 12:44:40;;;;;;;0.73;0.45;;;;;;;13.54;89.61;101618.25;6297062;28;20508;-78
2022/10/08 12:47:52;;;;;;;5.28;0.57;;;;;;;13.52;89.69;101625.38;6297080;28;20420;-78
2022/10/08 12:51:02;;;;;;;0.10;0.10;;;;;;;13.52;91.07;101634.16;6296995;28;20048;-78
2022/10/08 12:54:04;;;;;;;3.80;0.32;;;;;;;13.64;91.21;101640.59;6296537;28;20500;-75
2022/10/08 12:57:09;;;;;;;0.22;0.22;;;;;;;13.45;87.17;101636.28;6297384;28;20045;-76
2022/10/08 13:00:22;;;;;;;2.58;0.43;;;;;;;13.16;92.77;101645.63;6296497;28;20044;-77
2022/10/08 13:03:24;;;;;;;0.57;0.20;;;;;;;12.65;94.72;101655.13;6294627;28;20055;-77
2022/10/08 13:06:28;;;;;;;3.70;0.30;;;;;;;12.47;95.44;101665.69;6296232;28;20041;-77
2022/10/08 13:09:31;;;;;;;1.00;0.30;;;;;;;12.33;93.62;101661.06;6296523;28;20415;-77
2022/10/08 13:12:32;;;;;;;1.35;0.70;;;;;;;12.30;93.83;101667.31;6296469;28;20045;-77
2022/10/08 13:15:34;;;;;;;0.32;0.10;;;;;;;12.35;89.66;101672.38;6296234;28;20044;-76
2022/10/08 13:18:38;;;;;;;0.43;0.20;;;;;;;12.39;89.00;101664.25;6296630;28;20450;-77
2022/10/08 13:21:41;;;;;;;0.10;0.10;;;;;;;12.33;92.11;101669.81;6296757;28;20060;-77
2022/10/08 13:24:43;;;;;;;0.82;0.22;;;;;;;12.68;91.96;101664.69;6296458;28;20526;-77
2022/10/08 13:27:44;;;;;;;0.75;0.40;;;;;;;13.08;89.39;101670.66;6297204;28;20056;-76
2022/10/08 13:30:46;;;;;;;0.77;0.20;;;;;;;13.16;90.63;101665.88;6296687;28;20048;-78
2022/10/08 13:33:48;;;;;;;1.75;1.20;;;;;;;13.05;89.10;101663.78;6296174;28;20044;-77
2022/10/08 13:36:54;;;;;;;0.55;0.20;;;;;;;12.99;91.82;101674.66;6296809;28;20059;-78
2022/10/08 13:39:57;;;;;;;2.47;0.28;;;;;;;13.45;88.46;101682.97;6296469;28;20048;-77
2022/10/08 13:42:59;;;;;;;1.90;1.27;;;;;;;14.00;86.71;101674.81;6297102;28;20056;-77
2022/10/08 13:46:01;;;;;;;0.40;0.20;;;;;;;14.23;82.09;101675.38;6295700;28;20044;-76
2022/10/08 13:49:02;;;;;;;3.20;0.40;;;;;;;14.58;81.42;101678.75;6296978;28;20044;-78
2022/10/08 13:52:05;;;;;;;3.83;0.80;;;;;;;14.57;80.51;101677.06;6296539;28;20053;-78
2022/10/08 13:55:21;;;;;;;0.43;0.30;;;;;;;14.75;81.63;101683.97;6296699;28;20534;-79
2022/10/08 13:58:22;;;;;;;1.92;0.40;;;;;;;14.54;80.35;101690.50;6297378;28;20064;-79
2022/10/08 14:01:23;;;;;;;1.10;0.50;;;;;;;14.47;78.02;101696.06;6297315;28;20053;-78
2022/10/08 14:04:25;;;;;;;1.77;0.47;;;;;;;14.67;80.36;101692.38;6296656;28;20045;-78
2022/10/08 14:07:32;;;;;;;0.35;0.20;;;;;;;14.60;80.20;101700.72;6297117;28;20138;-78
2022/10/08 14:10:34;;;;;;;0.88;0.20;;;;;;;14.40;79.10;101691.19;6296238;28;20051;-78
2022/10/08 14:13:35;;;;;;;1.35;0.40;;;;;;;14.31;80.16;101692.56;6296730;28;20044;-78
2022/10/08 14:16:37;;;;;;;0.30;0.30;;;;;;;14.38;79.70;101703.63;6297077;28;20049;-78